createdAt,value
2017-02-23T04:01:05.964Z,999.99
2017-02-23T04:01:31.532Z,999.98
2017-02-23T04:01:57.115Z,999.98
2017-02-23T04:02:22.686Z,1000.01
2017-02-23T04:02:48.309Z,999.98
2017-02-23T04:03:13.892Z,1000.05
2017-02-23T04:03:39.458Z,1000.07
2017-02-23T04:04:05.021Z,1000.02
2017-02-23T04:04:30.592Z,1000.03
2017-02-23T04:04:56.168Z,1000
2017-02-23T04:05:21.707Z,1000
2017-02-23T04:05:47.299Z,1000
2017-02-23T04:06:12.890Z,1000.02
2017-02-23T04:06:38.445Z,1000.02
2017-02-23T04:07:04.002Z,1000.03
2017-02-23T04:07:29.574Z,1000.04
2017-02-23T04:07:55.133Z,1000.05
2017-02-23T04:08:20.694Z,1000.03
2017-02-23T04:08:46.272Z,1000.05
2017-02-23T04:09:12.011Z,1000.11
2017-02-23T04:09:37.590Z,1000.04
2017-02-23T04:10:03.166Z,1000.06
2017-02-23T04:10:29.251Z,1000.04
2017-02-23T04:10:54.832Z,1000.06
2017-02-23T04:11:21.231Z,1000.08
2017-02-23T04:11:46.912Z,1000.08
2017-02-23T04:12:12.485Z,1000.04
2017-02-23T04:12:38.041Z,1000.03
2017-02-23T04:13:03.614Z,1000.02
2017-02-23T04:13:29.171Z,1000.04
2017-02-23T04:13:54.750Z,1000.03
2017-02-23T04:14:20.313Z,1000.05
2017-02-23T04:14:45.892Z,1000.06
2017-02-23T04:15:11.517Z,1000.05
2017-02-23T04:15:37.073Z,1000.05
2017-02-23T04:16:02.653Z,1000.02
2017-02-23T04:16:28.205Z,1000.06
2017-02-23T04:16:53.785Z,1000.04
2017-02-23T04:17:19.342Z,999.96
2017-02-23T04:17:44.923Z,1000.01
2017-02-23T04:18:10.495Z,1000
2017-02-23T04:18:36.060Z,1000.03
2017-02-23T04:19:01.691Z,1000
2017-02-23T04:19:27.273Z,1000.03
2017-02-23T04:19:52.832Z,1000.02
2017-02-23T04:20:18.381Z,1000
2017-02-23T04:20:44.042Z,999.97
2017-02-23T04:21:09.609Z,999.99
2017-02-23T04:21:35.181Z,1000.02
2017-02-23T04:22:00.813Z,999.97
2017-02-23T04:22:26.428Z,999.98
2017-02-23T04:22:52.071Z,999.98
2017-02-23T04:23:17.639Z,1000.01
2017-02-23T04:23:43.185Z,999.98
2017-02-23T04:24:09.235Z,999.95
2017-02-23T04:24:34.281Z,999.94
2017-02-23T04:24:59.832Z,999.95
2017-02-23T04:25:25.391Z,1000
2017-02-23T04:25:50.949Z,999.96
2017-02-23T04:26:17.237Z,999.91
2017-02-23T04:26:42.071Z,999.91
2017-02-23T04:27:07.630Z,999.9
2017-02-23T04:27:33.181Z,999.87
2017-02-23T04:27:58.792Z,999.86
2017-02-23T04:28:24.330Z,999.86
2017-02-23T04:28:49.897Z,999.87
2017-02-23T04:29:15.525Z,999.86
2017-02-23T04:29:41.067Z,999.83
2017-02-23T04:30:06.611Z,999.85
2017-02-23T04:30:32.157Z,999.8
2017-02-23T04:30:57.700Z,999.85
2017-02-23T04:31:23.242Z,999.86
2017-02-23T04:31:48.870Z,999.86
2017-02-23T04:32:14.422Z,999.84
2017-02-23T04:32:39.961Z,999.83
2017-02-23T04:33:05.512Z,999.78
2017-02-23T04:33:31.065Z,999.78
2017-02-23T04:33:56.720Z,999.76
2017-02-23T04:34:22.292Z,999.77
2017-02-23T04:34:47.857Z,999.75
2017-02-23T04:35:13.507Z,999.79
2017-02-23T04:35:39.180Z,999.8
2017-02-23T04:36:04.755Z,999.78
2017-02-23T04:36:30.316Z,999.75
2017-02-23T04:36:55.878Z,999.77
2017-02-23T04:37:21.522Z,999.76
2017-02-23T04:37:47.101Z,999.74
2017-02-23T04:38:12.774Z,999.77
2017-02-23T04:38:38.351Z,999.74
2017-02-23T04:39:03.914Z,999.72
2017-02-23T04:39:29.534Z,999.7
2017-02-23T04:39:55.095Z,999.72
2017-02-23T04:40:20.640Z,999.71
2017-02-23T04:40:46.215Z,999.75
2017-02-23T04:41:11.773Z,999.7
2017-02-23T04:41:37.322Z,999.73
2017-02-23T04:42:02.947Z,999.67
2017-02-23T04:42:28.498Z,999.7
2017-02-23T04:42:54.049Z,999.73
2017-02-23T04:43:19.611Z,999.74
2017-02-23T04:43:45.162Z,999.76
2017-02-23T04:44:10.701Z,999.75
2017-02-23T04:44:36.304Z,999.77
2017-02-23T04:45:01.881Z,999.76
2017-02-23T04:45:27.442Z,999.74
2017-02-23T04:45:53.001Z,999.73
2017-02-23T04:46:18.561Z,999.74
2017-02-23T04:46:44.120Z,999.76
2017-02-23T04:47:09.682Z,999.72
2017-02-23T04:47:35.243Z,999.73
2017-02-23T04:48:00.860Z,999.74
2017-02-23T04:48:26.445Z,999.74
2017-02-23T04:48:52.018Z,999.75
2017-02-23T04:49:17.584Z,999.73
2017-02-23T04:49:43.162Z,999.7
2017-02-23T04:50:08.732Z,999.7
2017-02-23T04:50:34.361Z,999.72
2017-02-23T04:50:59.911Z,999.75
2017-02-23T04:51:25.465Z,999.72
2017-02-23T04:51:51.060Z,999.69
2017-02-23T04:52:16.617Z,999.7
2017-02-23T04:52:42.158Z,999.64
2017-02-23T04:53:07.718Z,999.65
2017-02-23T04:53:33.289Z,999.64
2017-02-23T04:53:58.874Z,999.62
2017-02-23T04:54:24.443Z,999.62
2017-02-23T04:54:50.010Z,999.56
2017-02-23T04:55:15.584Z,999.59
2017-02-23T04:55:41.151Z,999.53
2017-02-23T04:56:06.713Z,999.59
2017-02-23T04:56:32.383Z,999.61
2017-02-23T04:56:58.037Z,999.58
2017-02-23T04:57:23.601Z,999.55
2017-02-23T04:57:50.138Z,999.56
2017-02-23T04:58:15.712Z,999.54
2017-02-23T04:58:41.395Z,999.54
2017-02-23T04:59:07.004Z,999.52
2017-02-23T04:59:32.564Z,999.55
2017-02-23T04:59:58.147Z,999.5
2017-02-23T05:00:23.792Z,999.51
2017-02-23T05:00:49.361Z,999.51
2017-02-23T05:01:14.925Z,999.54
2017-02-23T05:01:40.490Z,999.53
2017-02-23T05:02:06.093Z,999.58
2017-02-23T05:02:31.650Z,999.54
2017-02-23T05:02:57.975Z,999.53
2017-02-23T05:03:24.762Z,999.51
2017-02-23T05:03:50.337Z,999.52
2017-02-23T05:04:15.943Z,999.49
2017-02-23T05:04:41.501Z,999.55
2017-02-23T05:05:07.071Z,999.49
2017-02-23T05:05:32.736Z,999.51
2017-02-23T05:05:58.372Z,999.49
2017-02-23T05:06:23.940Z,999.48
2017-02-23T05:06:50.275Z,999.47
2017-02-23T05:07:15.884Z,999.5
2017-02-23T05:07:41.454Z,999.49
2017-02-23T05:08:07.259Z,999.48
2017-02-23T05:08:32.833Z,999.46
2017-02-23T05:08:58.392Z,999.51
2017-02-23T05:09:23.940Z,999.47
2017-02-23T05:09:49.506Z,999.49
2017-02-23T05:10:15.142Z,999.47
2017-02-23T05:10:40.705Z,999.51
2017-02-23T05:11:06.281Z,999.54
2017-02-23T05:11:31.843Z,999.51
2017-02-23T05:11:57.404Z,999.48
2017-02-23T05:12:22.977Z,999.48
2017-02-23T05:12:48.545Z,999.43
2017-02-23T05:13:14.270Z,999.43
2017-02-23T05:13:39.837Z,999.43
2017-02-23T05:14:05.408Z,999.45
2017-02-23T05:14:30.962Z,999.47
2017-02-23T05:14:56.534Z,999.43
2017-02-23T05:15:22.102Z,999.43
2017-02-23T05:15:47.673Z,999.42
2017-02-23T05:16:13.219Z,999.41
2017-02-23T05:16:38.884Z,999.43
2017-02-23T05:17:04.465Z,999.44
2017-02-23T05:17:30.020Z,999.45
2017-02-23T05:17:55.607Z,999.46
2017-02-23T05:18:21.247Z,999.39
2017-02-23T05:18:46.819Z,999.4
2017-02-23T05:19:12.409Z,999.37
2017-02-23T05:19:37.978Z,999.42
2017-02-23T05:20:03.576Z,999.41
2017-02-23T05:20:29.141Z,999.38
2017-02-23T05:20:54.700Z,999.35
2017-02-23T05:21:20.257Z,999.37
2017-02-23T05:21:45.831Z,999.38
2017-02-23T05:22:11.394Z,999.35
2017-02-23T05:22:36.965Z,999.38
2017-02-23T05:23:02.533Z,999.36
2017-02-23T05:23:28.091Z,999.35
2017-02-23T05:23:53.661Z,999.35
2017-02-23T05:24:19.215Z,999.35
2017-02-23T05:24:44.775Z,999.34
2017-02-23T05:25:10.348Z,999.32
2017-02-23T05:25:35.921Z,999.34
2017-02-23T05:26:01.486Z,999.32
2017-02-23T05:26:27.052Z,999.34
2017-02-23T05:26:52.620Z,999.35
2017-02-23T05:27:18.167Z,999.36
2017-02-23T05:27:43.724Z,999.32
2017-02-23T05:28:10.266Z,999.33
2017-02-23T05:28:34.899Z,999.31
2017-02-23T05:29:00.536Z,999.29
2017-02-23T05:29:26.102Z,999.33
2017-02-23T05:29:51.665Z,999.27
2017-02-23T05:30:17.283Z,999.25
2017-02-23T05:30:42.850Z,999.26
2017-02-23T05:31:08.504Z,999.22
2017-02-23T05:31:34.042Z,999.23
2017-02-23T05:31:59.590Z,999.18
2017-02-23T05:32:25.145Z,999.23
2017-02-23T05:32:50.722Z,999.2
2017-02-23T05:33:16.288Z,999.18
2017-02-23T05:33:41.843Z,999.19
2017-02-23T05:34:07.434Z,999.19
2017-02-23T05:34:33.017Z,999.18
2017-02-23T05:34:58.581Z,999.18
2017-02-23T05:35:24.171Z,999.2
2017-02-23T05:35:49.692Z,999.22
2017-02-23T05:36:15.253Z,999.24
2017-02-23T05:36:40.809Z,999.22
2017-02-23T05:37:06.401Z,999.19
2017-02-23T05:37:32.769Z,999.24
2017-02-23T05:37:57.523Z,999.22
2017-02-23T05:38:23.088Z,999.18
2017-02-23T05:38:48.634Z,999.2
2017-02-23T05:39:14.193Z,999.22
2017-02-23T05:39:39.735Z,999.26
2017-02-23T05:40:05.273Z,999.26
2017-02-23T05:40:31.772Z,999.24
2017-02-23T05:40:57.420Z,999.28
2017-02-23T05:41:22.977Z,999.28
2017-02-23T05:41:48.541Z,999.29
2017-02-23T05:42:14.232Z,999.28
2017-02-23T05:42:39.782Z,999.29
2017-02-23T05:43:05.353Z,999.33
2017-02-23T05:43:31.014Z,999.29
2017-02-23T05:43:56.586Z,999.33
2017-02-23T05:44:22.155Z,999.32
2017-02-23T05:44:47.710Z,999.32
2017-02-23T05:45:13.288Z,999.28
2017-02-23T05:45:38.881Z,999.32
2017-02-23T05:46:04.437Z,999.3
2017-02-23T05:46:30.003Z,999.31
2017-02-23T05:46:55.565Z,999.34
2017-02-23T05:47:21.202Z,999.3
2017-02-23T05:47:46.764Z,999.31
2017-02-23T05:48:50.272Z,999.31
2017-02-23T05:49:15.826Z,999.36
2017-02-23T05:49:41.386Z,999.32
2017-02-23T05:50:07.034Z,999.35
2017-02-23T05:50:32.593Z,999.35
2017-02-23T05:50:58.155Z,999.3
2017-02-23T05:51:23.836Z,999.3
2017-02-23T05:51:49.397Z,999.35
2017-02-23T05:52:14.954Z,999.27
2017-02-23T05:52:40.584Z,999.31
2017-02-23T05:53:06.213Z,999.27
2017-02-23T05:53:31.771Z,999.29
2017-02-23T05:53:57.390Z,999.26
2017-02-23T05:54:23.044Z,999.25
2017-02-23T05:54:49.411Z,999.23
2017-02-23T05:55:14.187Z,999.21
2017-02-23T05:55:39.756Z,999.23
2017-02-23T05:56:05.316Z,999.24
2017-02-23T05:56:30.872Z,999.24
2017-02-23T05:56:56.436Z,999.21
2017-02-23T05:57:21.989Z,999.21
2017-02-23T05:57:47.602Z,999.21
2017-02-23T05:58:13.165Z,999.2
2017-02-23T05:58:39.503Z,999.2
2017-02-23T05:59:05.059Z,999.22
2017-02-23T05:59:30.620Z,999.25
2017-02-23T05:59:56.201Z,999.22
2017-02-23T06:00:21.766Z,999.19
2017-02-23T06:00:47.320Z,999.2
2017-02-23T06:01:12.903Z,999.2
2017-02-23T06:01:38.491Z,999.16
2017-02-23T06:02:04.059Z,999.18
2017-02-23T06:02:29.625Z,999.17
2017-02-23T06:02:55.197Z,999.16
2017-02-23T06:03:20.909Z,999.15
2017-02-23T06:03:46.494Z,999.13
2017-02-23T06:04:12.062Z,999.12
2017-02-23T06:04:37.633Z,999.12
2017-02-23T06:05:03.220Z,999.15
2017-02-23T06:05:28.781Z,999.11
2017-02-23T06:05:54.374Z,999.15
2017-02-23T06:06:19.968Z,999.09
2017-02-23T06:06:45.545Z,999.1
2017-02-23T06:07:11.105Z,999.09
2017-02-23T06:07:36.676Z,999.08
2017-02-23T06:08:02.244Z,999.11
2017-02-23T06:08:27.798Z,999.08
2017-02-23T06:08:53.352Z,999.12
2017-02-23T06:09:19.423Z,999.12
2017-02-23T06:09:45.000Z,999.14
2017-02-23T06:10:10.573Z,999.08
2017-02-23T06:10:36.133Z,999.05
2017-02-23T06:11:01.695Z,999.06
2017-02-23T06:11:28.116Z,999.03
2017-02-23T06:11:53.666Z,999.02
2017-02-23T06:12:19.253Z,999.02
2017-02-23T06:12:44.817Z,999
2017-02-23T06:13:10.387Z,998.96
2017-02-23T06:13:35.945Z,999.02
2017-02-23T06:14:01.632Z,998.98
2017-02-23T06:14:27.200Z,998.97
2017-02-23T06:14:52.915Z,998.92
2017-02-23T06:15:18.492Z,998.91
2017-02-23T06:15:44.033Z,998.92
2017-02-23T06:16:09.690Z,998.92
2017-02-23T06:16:35.287Z,998.92
2017-02-23T06:17:00.850Z,998.91
2017-02-23T06:17:26.409Z,998.93
2017-02-23T06:17:51.986Z,998.91
2017-02-23T06:18:17.564Z,998.89
2017-02-23T06:18:43.124Z,998.91
2017-02-23T06:19:08.674Z,998.85
2017-02-23T06:19:34.234Z,998.9
2017-02-23T06:19:59.789Z,998.85
2017-02-23T06:20:26.967Z,998.83
2017-02-23T06:20:52.541Z,998.84
2017-02-23T06:21:18.091Z,998.84
2017-02-23T06:21:43.642Z,998.83
2017-02-23T06:22:09.219Z,998.83
2017-02-23T06:22:35.927Z,998.84
2017-02-23T06:23:00.662Z,998.82
2017-02-23T06:23:26.205Z,998.82
2017-02-23T06:23:51.769Z,998.85
2017-02-23T06:24:17.338Z,998.8
2017-02-23T06:24:42.963Z,998.81
2017-02-23T06:26:01.845Z,998.79
2017-02-23T06:26:27.429Z,998.78
2017-02-23T06:26:53.018Z,998.83
2017-02-23T06:27:18.606Z,998.85
2017-02-23T06:27:44.156Z,998.81
2017-02-23T06:28:09.752Z,998.79
2017-02-23T06:28:35.361Z,998.8
2017-02-23T06:29:00.922Z,998.81
2017-02-23T06:29:26.487Z,998.81
2017-02-23T06:29:52.046Z,998.78
2017-02-23T06:30:18.160Z,998.79
2017-02-23T06:30:43.733Z,998.78
2017-02-23T06:31:09.295Z,998.81
2017-02-23T06:31:34.859Z,998.77
2017-02-23T06:32:00.431Z,998.74
2017-02-23T06:32:25.996Z,998.78
2017-02-23T06:32:52.476Z,998.78
2017-02-23T06:33:18.888Z,998.79
2017-02-23T06:33:44.422Z,998.76
2017-02-23T06:34:10.966Z,998.75
2017-02-23T06:34:35.610Z,998.75
2017-02-23T06:35:01.167Z,998.8
2017-02-23T06:35:26.714Z,998.8
2017-02-23T06:35:52.286Z,998.77
2017-02-23T06:36:17.844Z,998.8
2017-02-23T06:36:43.420Z,998.75
2017-02-23T06:37:09.003Z,998.76
2017-02-23T06:37:34.549Z,998.74
2017-02-23T06:38:00.087Z,998.77
2017-02-23T06:38:25.700Z,998.79
2017-02-23T06:38:51.254Z,998.74
2017-02-23T06:39:16.809Z,998.74
2017-02-23T06:39:42.419Z,998.76
2017-02-23T06:40:07.978Z,998.72
2017-02-23T06:40:33.553Z,998.75
2017-02-23T06:40:59.207Z,998.77
2017-02-23T06:41:24.779Z,998.76
2017-02-23T06:41:50.352Z,998.75
2017-02-23T06:42:15.907Z,998.76
2017-02-23T06:42:41.503Z,998.77
2017-02-23T06:43:07.047Z,998.77
2017-02-23T06:43:32.605Z,998.77
2017-02-23T06:43:58.162Z,998.76
2017-02-23T06:44:23.716Z,998.8
2017-02-23T06:44:49.267Z,998.78
2017-02-23T06:45:14.838Z,998.79
2017-02-23T06:45:40.436Z,998.78
2017-02-23T06:46:05.987Z,998.85
2017-02-23T06:46:31.540Z,998.83
2017-02-23T06:46:57.111Z,998.81
2017-02-23T06:47:22.673Z,998.78
2017-02-23T06:47:48.241Z,998.82
2017-02-23T06:48:13.812Z,998.75
2017-02-23T06:48:39.871Z,998.79
2017-02-23T06:49:05.424Z,998.77
2017-02-23T06:49:30.988Z,998.79
2017-02-23T06:49:56.534Z,998.75
2017-02-23T06:50:22.197Z,998.73
2017-02-23T06:50:47.755Z,998.76
2017-02-23T06:51:13.316Z,998.76
2017-02-23T06:51:38.905Z,998.76
2017-02-23T06:52:04.454Z,998.74
2017-02-23T06:52:30.027Z,998.72
2017-02-23T06:52:55.607Z,998.71
2017-02-23T06:53:21.177Z,998.68
2017-02-23T06:53:46.782Z,998.68
2017-02-23T06:54:12.353Z,998.69
2017-02-23T06:54:37.909Z,998.7
2017-02-23T06:55:03.461Z,998.67
2017-02-23T06:55:29.019Z,998.69
2017-02-23T06:55:54.565Z,998.67
2017-02-23T06:56:20.122Z,998.66
2017-02-23T06:56:45.687Z,998.65
2017-02-23T06:57:11.252Z,998.69
2017-02-23T06:57:36.818Z,998.66
2017-02-23T06:58:02.373Z,998.67
2017-02-23T06:58:27.949Z,998.68
2017-02-23T06:58:53.537Z,998.66
2017-02-23T06:59:19.083Z,998.66
2017-02-23T06:59:44.638Z,998.65
2017-02-23T07:00:10.191Z,998.65
2017-02-23T07:00:35.759Z,998.65
2017-02-23T07:01:39.264Z,998.65
2017-02-23T07:02:04.829Z,998.62
2017-02-23T07:02:30.381Z,998.63
2017-02-23T07:02:55.942Z,998.62
2017-02-23T07:03:21.536Z,998.64
2017-02-23T07:03:47.111Z,998.63
2017-02-23T07:04:12.677Z,998.62
2017-02-23T07:04:38.235Z,998.63
2017-02-23T07:05:03.789Z,998.62
2017-02-23T07:05:29.408Z,998.68
2017-02-23T07:05:54.971Z,998.68
2017-02-23T07:06:20.530Z,998.65
2017-02-23T07:06:46.085Z,998.67
2017-02-23T07:07:11.645Z,998.66
2017-02-23T07:07:37.201Z,998.67
2017-02-23T07:08:02.748Z,998.69
2017-02-23T07:08:28.407Z,998.67
2017-02-23T07:08:53.986Z,998.68
2017-02-23T07:09:19.548Z,998.7
2017-02-23T07:09:45.101Z,998.65
2017-02-23T07:10:10.666Z,998.66
2017-02-23T07:11:09.128Z,998.69
2017-02-23T07:11:36.216Z,998.65
2017-02-23T07:13:41.957Z,998.66
2017-02-23T07:14:07.575Z,998.65
2017-02-23T07:14:33.133Z,998.64
2017-02-23T07:14:58.713Z,998.59
2017-02-23T07:15:24.331Z,998.59
2017-02-23T07:15:49.894Z,998.58
2017-02-23T07:16:48.317Z,998.56
2017-02-23T07:17:13.883Z,998.54
2017-02-23T07:17:39.439Z,998.57
2017-02-23T07:18:05.052Z,998.52
2017-02-23T07:18:30.639Z,998.55
2017-02-23T07:18:56.228Z,998.54
2017-02-23T07:19:21.794Z,998.57
2017-02-23T07:19:47.364Z,998.57
2017-02-23T07:20:12.922Z,998.58
2017-02-23T07:20:38.493Z,998.56
2017-02-23T07:21:04.049Z,998.51
2017-02-23T07:21:29.615Z,998.54
2017-02-23T07:21:55.185Z,998.53
2017-02-23T07:22:20.759Z,998.55
2017-02-23T07:22:46.349Z,998.52
2017-02-23T07:23:11.937Z,998.56
2017-02-23T07:23:37.483Z,998.51
2017-02-23T07:24:03.030Z,998.48
2017-02-23T07:24:28.643Z,998.48
2017-02-23T07:24:54.227Z,998.49
2017-02-23T07:25:19.784Z,998.51
2017-02-23T07:25:45.351Z,998.47
2017-02-23T07:26:10.901Z,998.46
2017-02-23T07:26:36.471Z,998.47
2017-02-23T07:27:02.043Z,998.47
2017-02-23T07:27:27.604Z,998.43
2017-02-23T07:27:53.229Z,998.42
2017-02-23T07:28:18.800Z,998.42
2017-02-23T07:28:44.357Z,998.46
2017-02-23T07:29:09.909Z,998.4
2017-02-23T07:29:35.471Z,998.35
2017-02-23T07:30:26.971Z,998.33
2017-02-23T07:30:52.636Z,998.28
2017-02-23T07:31:18.190Z,998.26
2017-02-23T07:31:43.749Z,998.27
2017-02-23T07:32:09.304Z,998.3
2017-02-23T07:32:34.868Z,998.3
2017-02-23T07:33:00.433Z,998.22
2017-02-23T07:33:25.989Z,998.22
2017-02-23T07:33:51.561Z,998.17
2017-02-23T07:34:17.190Z,998.14
2017-02-23T07:34:43.446Z,998.14
2017-02-23T07:35:08.417Z,998.13
2017-02-23T07:35:33.987Z,998.09
2017-02-23T07:35:59.638Z,998.1
2017-02-23T07:36:25.199Z,998.11
2017-02-23T07:36:50.782Z,998.07
2017-02-23T07:37:16.343Z,998.08
2017-02-23T07:37:42.873Z,998.07
2017-02-23T07:38:08.443Z,998.03
2017-02-23T07:38:34.022Z,998.03
2017-02-23T07:38:59.593Z,998.04
2017-02-23T07:39:25.154Z,998.06
2017-02-23T07:39:50.734Z,998.03
2017-02-23T07:40:16.319Z,998.04
2017-02-23T07:40:42.063Z,998.03
2017-02-23T07:41:08.461Z,998.01
2017-02-23T07:41:34.035Z,998.03
2017-02-23T07:41:59.595Z,998.03
2017-02-23T07:42:25.127Z,998
2017-02-23T07:42:50.699Z,997.99
2017-02-23T07:43:16.283Z,997.94
2017-02-23T07:43:41.829Z,997.93
2017-02-23T07:44:07.402Z,997.9
2017-02-23T07:44:33.065Z,997.9
2017-02-23T07:44:58.615Z,997.85
2017-02-23T07:45:24.171Z,997.88
2017-02-23T07:45:49.733Z,997.86
2017-02-23T07:46:15.287Z,997.87
2017-02-23T07:46:40.838Z,997.88
2017-02-23T07:47:06.461Z,997.83
2017-02-23T07:47:32.032Z,997.81
2017-02-23T07:47:57.601Z,997.77
2017-02-23T07:48:23.281Z,997.79
2017-02-23T07:48:48.848Z,997.74
2017-02-23T07:49:14.428Z,997.72
2017-02-23T07:49:40.111Z,997.75
2017-02-23T07:50:05.669Z,997.69
2017-02-23T07:50:31.239Z,997.69
2017-02-23T07:50:56.972Z,997.68
2017-02-23T07:51:22.527Z,997.65
2017-02-23T07:51:48.101Z,997.62
2017-02-23T07:52:13.661Z,997.61
2017-02-23T07:52:39.235Z,997.61
2017-02-23T07:53:04.798Z,997.63
2017-02-23T07:53:30.360Z,997.6
2017-02-23T07:53:55.926Z,997.57
2017-02-23T07:54:21.476Z,997.58
2017-02-23T07:54:47.028Z,997.58
2017-02-23T07:55:12.616Z,997.51
2017-02-23T07:55:38.204Z,997.45
2017-02-23T07:56:03.907Z,997.46
2017-02-23T07:56:29.494Z,997.44
2017-02-23T07:56:55.063Z,997.43
2017-02-23T07:57:20.688Z,997.36
2017-02-23T07:57:46.295Z,997.37
2017-02-23T07:58:11.873Z,997.35
2017-02-23T07:58:37.439Z,997.35
2017-02-23T07:59:03.755Z,997.3
2017-02-23T07:59:29.313Z,997.25
2017-02-23T07:59:54.871Z,997.22
2017-02-23T08:00:20.444Z,997.21
2017-02-23T08:00:45.990Z,997.17
2017-02-23T08:01:11.539Z,997.18
2017-02-23T08:01:37.211Z,997.15
2017-02-23T08:02:02.776Z,997.19
2017-02-23T08:02:28.321Z,997.13
2017-02-23T08:02:53.867Z,997.11
2017-02-23T08:03:19.434Z,997.15
2017-02-23T08:03:44.992Z,997.06
2017-02-23T08:04:11.458Z,997.08
2017-02-23T08:04:36.110Z,997.04
2017-02-23T08:05:01.666Z,997.04
2017-02-23T08:05:27.256Z,997.05
2017-02-23T08:05:52.830Z,997.03
2017-02-23T08:06:18.407Z,997
2017-02-23T08:06:43.966Z,997.01
2017-02-23T08:07:09.530Z,996.98
2017-02-23T08:07:35.784Z,997.03
2017-02-23T08:08:01.344Z,996.98
2017-02-23T08:08:26.903Z,996.97
2017-02-23T08:08:52.484Z,996.95
2017-02-23T08:09:18.036Z,997.02
2017-02-23T08:09:43.583Z,997.02
2017-02-23T08:10:09.207Z,997.02
2017-02-23T08:10:34.785Z,996.98
2017-02-23T08:11:00.335Z,997.01
2017-02-23T08:11:26.477Z,996.98
2017-02-23T08:11:51.635Z,997.01
2017-02-23T08:12:17.200Z,996.99
2017-02-23T08:12:42.834Z,996.97
2017-02-23T08:13:08.394Z,996.97
2017-02-23T08:13:33.954Z,996.98
2017-02-23T08:13:59.531Z,996.99
2017-02-23T08:14:25.156Z,997
2017-02-23T08:14:50.723Z,996.94
2017-02-23T08:15:16.956Z,996.93
2017-02-23T08:15:42.822Z,996.92
2017-02-23T08:16:08.403Z,996.92
2017-02-23T08:16:33.961Z,996.88
2017-02-23T08:16:59.536Z,996.88
2017-02-23T08:17:25.296Z,996.88
2017-02-23T08:17:50.895Z,996.89
2017-02-23T08:18:16.489Z,996.92
2017-02-23T08:18:42.032Z,996.89
2017-02-23T08:19:07.590Z,996.93
2017-02-23T08:19:33.152Z,996.92
2017-02-23T08:19:58.715Z,996.93
2017-02-23T08:20:24.311Z,996.94
2017-02-23T08:20:49.887Z,996.88
2017-02-23T08:21:15.462Z,996.9
2017-02-23T08:21:41.045Z,996.9
2017-02-23T08:22:06.615Z,996.89
2017-02-23T08:22:32.175Z,996.84
2017-02-23T08:22:57.749Z,996.81
2017-02-23T08:23:23.321Z,996.83
2017-02-23T08:23:48.882Z,996.77
2017-02-23T08:24:14.461Z,996.74
2017-02-23T08:24:40.967Z,996.75
2017-02-23T08:25:05.578Z,996.71
2017-02-23T08:25:31.131Z,996.76
2017-02-23T08:25:56.701Z,996.74
2017-02-23T08:26:22.324Z,996.77
2017-02-23T08:26:47.893Z,996.74
2017-02-23T08:27:13.451Z,996.74
2017-02-23T08:27:39.086Z,996.72
2017-02-23T08:28:05.470Z,996.69
2017-02-23T08:28:30.246Z,996.7
2017-02-23T08:28:55.943Z,996.67
2017-02-23T08:29:21.509Z,996.7
2017-02-23T08:29:47.081Z,996.67
2017-02-23T08:30:12.671Z,996.66
2017-02-23T08:30:38.376Z,996.66
2017-02-23T08:31:04.015Z,996.64
2017-02-23T08:31:30.464Z,996.62
2017-02-23T08:31:55.113Z,996.6
2017-02-23T08:32:20.668Z,996.59
2017-02-23T08:32:46.217Z,996.61
2017-02-23T08:33:11.786Z,996.6
2017-02-23T08:33:37.337Z,996.64
2017-02-23T08:34:02.960Z,996.62
2017-02-23T08:34:28.524Z,996.63
2017-02-23T08:34:54.085Z,996.62
2017-02-23T08:35:19.647Z,996.61
2017-02-23T08:36:33.446Z,996.52
2017-02-23T08:36:59.057Z,996.47
2017-02-23T08:37:24.588Z,996.43
2017-02-23T08:37:50.128Z,996.44
2017-02-23T08:38:15.680Z,996.43
2017-02-23T08:38:41.261Z,996.42
2017-02-23T08:39:06.854Z,996.42
2017-02-23T08:39:32.972Z,996.42
2017-02-23T08:39:58.679Z,996.38
2017-02-23T08:40:24.391Z,996.36
2017-02-23T08:40:49.928Z,996.37
2017-02-23T08:41:15.486Z,996.36
2017-02-23T08:41:41.019Z,996.38
2017-02-23T08:42:06.568Z,996.35
2017-02-23T08:42:32.135Z,996.34
2017-02-23T08:42:57.716Z,996.27
2017-02-23T08:43:23.278Z,996.24
2017-02-23T08:43:48.833Z,996.26
2017-02-23T08:44:14.401Z,996.23
2017-02-23T08:44:39.987Z,996.22
2017-02-23T08:45:05.524Z,996.18
2017-02-23T08:45:31.083Z,996.2
2017-02-23T08:45:56.638Z,996.18
2017-02-23T08:46:22.196Z,996.18
2017-02-23T08:46:47.757Z,996.23
2017-02-23T08:47:13.316Z,996.17
2017-02-23T08:47:38.863Z,996.15
2017-02-23T08:48:04.604Z,996.13
2017-02-23T08:48:30.302Z,996.18
2017-02-23T08:48:56.534Z,996.17
2017-02-23T08:49:21.498Z,996.14
2017-02-23T08:49:47.041Z,996.1
2017-02-23T08:50:12.623Z,996.06
2017-02-23T08:50:39.032Z,996.03
2017-02-23T08:51:03.732Z,996.01
2017-02-23T08:51:29.300Z,995.99
2017-02-23T08:51:54.858Z,995.94
2017-02-23T08:54:45.252Z,995.94
2017-02-23T08:55:10.808Z,995.93
2017-02-23T08:55:36.399Z,995.92
2017-02-23T08:56:01.960Z,995.91
2017-02-23T08:57:10.256Z,995.88
2017-02-23T08:57:35.814Z,995.92
2017-02-23T08:58:01.492Z,995.91
2017-02-23T08:58:27.035Z,995.91
2017-02-23T08:58:52.602Z,995.88
2017-02-23T08:59:56.113Z,995.9
2017-02-23T09:00:21.663Z,995.86
2017-02-23T09:00:47.274Z,995.86
2017-02-23T09:01:12.801Z,995.79
2017-02-23T09:01:38.358Z,995.83
2017-02-23T09:02:03.929Z,995.86
2017-02-23T09:02:29.532Z,995.8
2017-02-23T09:02:55.112Z,995.83
2017-02-23T09:03:20.680Z,995.84
2017-02-23T09:03:46.234Z,995.85
2017-02-23T09:04:12.439Z,995.87
2017-02-23T09:04:38.002Z,995.85
2017-02-23T09:05:03.581Z,995.89
2017-02-23T09:05:29.154Z,995.83
2017-02-23T09:05:54.712Z,995.84
2017-02-23T09:06:20.310Z,995.74
2017-02-23T09:06:45.855Z,995.73
2017-02-23T09:07:11.420Z,995.64
2017-02-23T09:07:36.974Z,995.63
2017-02-23T09:08:02.539Z,995.57
2017-02-23T09:08:28.110Z,995.55
2017-02-23T09:08:53.675Z,995.55
2017-02-23T09:09:20.747Z,995.55
2017-02-23T09:09:45.348Z,995.52
2017-02-23T09:10:10.904Z,995.5
2017-02-23T09:10:36.514Z,995.5
2017-02-23T09:11:02.098Z,995.51
2017-02-23T09:11:27.673Z,995.5
2017-02-23T09:11:53.250Z,995.51
2017-02-23T09:12:18.804Z,995.45
2017-02-23T09:12:44.373Z,995.44
2017-02-23T09:13:09.946Z,995.42
2017-02-23T09:13:36.280Z,995.42
2017-02-23T09:14:01.851Z,995.48
2017-02-23T09:14:27.506Z,995.45
2017-02-23T09:14:53.074Z,995.4
2017-02-23T09:15:18.632Z,995.42
2017-02-23T09:15:44.941Z,995.34
2017-02-23T09:16:10.762Z,995.31
2017-02-23T09:16:36.339Z,995.35
2017-02-23T09:17:01.904Z,995.35
2017-02-23T09:17:27.515Z,995.3
2017-02-23T09:17:53.080Z,995.34
2017-02-23T09:18:18.629Z,995.34
2017-02-23T09:18:44.271Z,995.25
2017-02-23T09:19:09.897Z,995.23
2017-02-23T09:19:35.438Z,995.22
2017-02-23T09:20:01.035Z,995.17
2017-02-23T09:20:26.574Z,995.21
2017-02-23T09:20:52.130Z,995.18
2017-02-23T09:21:17.700Z,995.17
2017-02-23T09:21:43.405Z,995.1
2017-02-23T09:22:09.015Z,995.12
2017-02-23T09:22:34.587Z,995.08
2017-02-23T09:23:00.155Z,995.08
2017-02-23T09:23:25.720Z,995.04
2017-02-23T09:23:51.294Z,995.05
2017-02-23T09:24:16.873Z,995.08
2017-02-23T09:24:42.975Z,995.09
2017-02-23T09:25:08.551Z,995.11
2017-02-23T09:25:34.136Z,995.1
2017-02-23T09:26:00.249Z,995.08
2017-02-23T09:27:19.425Z,995.1
2017-02-23T09:27:45.000Z,995.07
2017-02-23T09:28:10.578Z,995.07
2017-02-23T09:28:36.995Z,995.02
2017-02-23T09:29:01.755Z,995.02
2017-02-23T09:29:27.319Z,994.98
2017-02-23T09:29:52.890Z,994.95
2017-02-23T09:30:18.483Z,994.97
2017-02-23T09:30:44.026Z,994.94
2017-02-23T09:31:09.610Z,994.9
2017-02-23T09:31:35.219Z,994.92
2017-02-23T09:32:00.841Z,994.89